Water Valley's Hourly Summary for Saturday, August 29, 2026
Hour Temp
(f)
RH
(%)
Solar Rad.
(MJ/m2)
Rainfall
(in)
Wind
(mph)
Battery
(volts)
8/29/2026 12:00 AM 81 57 0 0 4.32 0
8/29/2026 1:00 AM 78 61 0 0 0.04 0
8/29/2026 2:00 AM 73 75 0 0 0.68 0
8/29/2026 3:00 AM 74 72 0 0 3.33 0
8/29/2026 4:00 AM 74 71 0 0 3.32 0
8/29/2026 5:00 AM 72 77 0 0 0 0
8/29/2026 6:00 AM 68 89 0 0 0 0
8/29/2026 7:00 AM 70 84 0 0 0 0
8/29/2026 8:00 AM 73 77 0.09 0 1.49 0
8/29/2026 9:00 AM 78 67 0.26 0 5.47 0
8/29/2026 10:00 AM 84 57 0.44 0 4.29 0
8/29/2026 11:00 AM 88 46 0.6 0 4.28 0
8/29/2026 12:00 PM 92 36 0.74 0 4.41 0
8/29/2026 1:00 PM 95 34 0.82 0 4.29 0
8/29/2026 2:00 PM 93 39 0.79 0 5.82 0
8/29/2026 3:00 PM 94 32 0.85 0 7.03 0
8/29/2026 4:00 PM 97 35 0.73 0 5.49 0
8/29/2026 5:00 PM 95 31 0.52 0 5.88 0
8/29/2026 6:00 PM 95 24 0.38 0 7.47 0
8/29/2026 7:00 PM 94 27 0.19 0 6.74 0
8/29/2026 8:00 PM 89 36 0.02 0 3.35 0
8/29/2026 9:00 PM 81 52 0 0 1.21 0
8/29/2026 10:00 PM 86 44 0 0 2.79 0
8/29/2026 11:00 PM 81 50 0 0 2.94 0
Data Summary 83 53 6.43 0.00 3.53 0.00